createdAt,value
2018-09-14T00:02:59.691Z,11.23
2018-09-14T00:06:03.437Z,11.19
2018-09-14T00:09:10.182Z,11.22
2018-09-14T00:12:13.797Z,11.07
2018-09-14T00:15:18.573Z,11.12
2018-09-14T00:18:22.231Z,10.92
2018-09-14T00:21:25.817Z,10.90
2018-09-14T00:24:30.177Z,10.72
2018-09-14T00:27:33.946Z,10.60
2018-09-14T00:30:37.587Z,10.50
2018-09-14T00:33:41.248Z,10.63
2018-09-14T00:36:44.861Z,10.53
2018-09-14T00:39:48.589Z,10.53
2018-09-14T00:42:52.383Z,10.54
2018-09-14T00:45:56.038Z,10.49
2018-09-14T00:48:59.678Z,10.51
2018-09-14T00:52:03.334Z,10.33
2018-09-14T00:55:07.076Z,10.25
2018-09-14T00:58:10.744Z,10.18
2018-09-14T01:01:14.303Z,10.11
2018-09-14T01:04:17.988Z,10.08
2018-09-14T01:07:21.592Z,10.04
2018-09-14T01:10:25.382Z,10.10
2018-09-14T01:13:29.113Z,10.23
2018-09-14T01:16:32.863Z,10.13
2018-09-14T01:19:36.631Z,10.11
2018-09-14T01:22:40.282Z,10.19
2018-09-14T01:25:44.020Z,10.39
2018-09-14T01:28:47.727Z,10.26
2018-09-14T01:31:51.497Z,10.16
2018-09-14T01:34:55.160Z,10.08
2018-09-14T01:37:58.781Z,10.06
2018-09-14T01:41:02.453Z,10.19
2018-09-14T01:44:06.486Z,10.16
2018-09-14T01:47:10.132Z,10.15
2018-09-14T01:50:13.765Z,10.12
2018-09-14T01:53:17.478Z,10.21
2018-09-14T01:56:21.147Z,10.24
2018-09-14T01:59:24.778Z,10.26
2018-09-14T02:02:28.371Z,10.30
2018-09-14T02:05:32.062Z,10.28
2018-09-14T02:08:35.822Z,10.40
2018-09-14T02:11:39.496Z,10.24
2018-09-14T02:14:43.152Z,10.29
2018-09-14T02:17:47.246Z,10.19
2018-09-14T02:20:50.816Z,10.31
2018-09-14T02:23:54.437Z,10.35
2018-09-14T02:26:58.082Z,10.22
2018-09-14T02:30:01.733Z,10.14
2018-09-14T02:33:05.473Z,10.05
2018-09-14T02:36:10.041Z,10.09
2018-09-14T02:39:13.727Z,10.15
2018-09-14T02:42:17.323Z,10.18
2018-09-14T02:45:21.136Z,10.08
2018-09-14T02:48:24.866Z,10.04
2018-09-14T02:51:29.405Z,9.98
2018-09-14T02:54:34.218Z,9.94
2018-09-14T02:57:37.985Z,9.94
2018-09-14T03:00:41.746Z,10.12
2018-09-14T03:03:45.392Z,10.10
2018-09-14T03:06:49.042Z,10.05
2018-09-14T03:09:52.684Z,10.16
2018-09-14T03:12:56.423Z,10.11
2018-09-14T03:16:00.088Z,10.00
2018-09-14T03:19:03.826Z,9.99
2018-09-14T03:22:07.561Z,10.06
2018-09-14T03:25:11.160Z,9.94
2018-09-14T03:28:14.789Z,10.03
2018-09-14T03:31:18.411Z,9.85
2018-09-14T03:34:22.069Z,9.78
2018-09-14T03:37:25.666Z,9.70
2018-09-14T03:40:29.372Z,9.71
2018-09-14T03:43:32.943Z,9.65
2018-09-14T03:46:36.581Z,9.63
2018-09-14T03:49:40.188Z,9.56
2018-09-14T03:52:43.810Z,9.54
2018-09-14T03:55:47.479Z,9.59
2018-09-14T03:58:51.167Z,9.51
2018-09-14T04:01:54.826Z,9.41
2018-09-14T04:04:58.492Z,9.38
2018-09-14T04:08:02.141Z,9.30
2018-09-14T04:11:05.792Z,9.23
2018-09-14T04:14:09.468Z,9.27
2018-09-14T04:17:13.208Z,9.39
2018-09-14T04:20:16.969Z,9.30
2018-09-14T04:23:20.719Z,9.24
2018-09-14T04:26:24.595Z,9.09
2018-09-14T04:29:28.278Z,9.17
2018-09-14T04:32:31.983Z,9.09
2018-09-14T04:35:35.611Z,9.07
2018-09-14T04:38:39.413Z,9.04
2018-09-14T04:41:42.980Z,9.02
2018-09-14T04:44:47.003Z,9.03
2018-09-14T04:47:50.864Z,9.00
2018-09-14T04:50:54.623Z,8.94
2018-09-14T04:53:58.351Z,8.90
2018-09-14T04:57:02.318Z,8.83
2018-09-14T05:00:06.139Z,8.80
2018-09-14T05:03:09.758Z,8.78
2018-09-14T05:06:13.473Z,8.76
2018-09-14T05:09:17.132Z,8.75
2018-09-14T05:12:20.786Z,8.76
2018-09-14T05:15:24.511Z,8.75
2018-09-14T05:18:28.232Z,8.80
2018-09-14T05:21:31.936Z,8.78
2018-09-14T05:24:35.599Z,8.78
2018-09-14T05:27:39.208Z,8.85
2018-09-14T05:30:42.924Z,8.91
2018-09-14T05:33:46.616Z,9.08
2018-09-14T05:36:50.311Z,9.31
2018-09-14T05:39:53.912Z,9.63
2018-09-14T05:42:57.632Z,9.82
2018-09-14T05:46:01.227Z,10.04
2018-09-14T05:49:05.083Z,10.10
2018-09-14T05:52:08.789Z,10.19
2018-09-14T05:55:12.507Z,10.20
2018-09-14T05:58:16.115Z,10.36
2018-09-14T06:01:19.896Z,10.33
2018-09-14T06:04:23.449Z,10.38
2018-09-14T06:07:27.294Z,10.53
2018-09-14T06:10:30.903Z,10.51
2018-09-14T06:13:34.568Z,10.50
2018-09-14T06:16:38.619Z,10.71
2018-09-14T06:19:42.243Z,10.89
2018-09-14T06:22:45.871Z,10.99
2018-09-14T06:25:49.544Z,11.33
2018-09-14T06:28:53.266Z,11.48
2018-09-14T06:31:56.833Z,11.52
2018-09-14T06:35:00.592Z,11.77
2018-09-14T06:38:04.250Z,11.67
2018-09-14T06:41:07.951Z,11.70
2018-09-14T06:44:11.613Z,11.84
2018-09-14T06:47:15.310Z,12.00
2018-09-14T06:50:18.931Z,12.17
2018-09-14T06:53:22.661Z,11.93
2018-09-14T06:56:26.211Z,12.23
2018-09-14T06:59:29.991Z,12.30
2018-09-14T07:02:33.633Z,12.65
2018-09-14T07:05:37.427Z,12.94
2018-09-14T07:08:41.357Z,13.17
2018-09-14T07:11:44.963Z,13.06
2018-09-14T07:14:48.650Z,13.10
2018-09-14T07:17:52.416Z,13.66
2018-09-14T07:20:55.996Z,13.49
2018-09-14T07:23:59.648Z,13.60
2018-09-14T07:27:03.402Z,13.67
2018-09-14T07:30:07.131Z,13.68
2018-09-14T07:33:10.792Z,14.01
2018-09-14T07:36:14.529Z,14.28
2018-09-14T07:39:18.107Z,14.10
2018-09-14T07:42:21.819Z,13.96
2018-09-14T07:45:25.427Z,14.07
2018-09-14T07:48:29.119Z,13.61
2018-09-14T07:51:32.673Z,14.07
2018-09-14T07:54:36.321Z,14.26
2018-09-14T07:57:40.075Z,14.51
2018-09-14T08:00:43.728Z,14.44
2018-09-14T08:03:47.426Z,14.18
2018-09-14T08:06:51.383Z,14.32
2018-09-14T08:09:55.037Z,14.18
2018-09-14T08:12:58.696Z,14.06
2018-09-14T08:16:02.348Z,14.17
2018-09-14T08:19:06.447Z,13.95
2018-09-14T08:22:10.109Z,13.69
2018-09-14T08:25:13.899Z,14.32
2018-09-14T08:28:17.588Z,14.77
2018-09-14T08:31:21.218Z,14.22
2018-09-14T08:34:24.776Z,14.21
2018-09-14T08:37:28.520Z,14.43
2018-09-14T08:40:32.128Z,14.27
2018-09-14T08:43:35.762Z,14.32
2018-09-14T08:46:39.368Z,14.33
2018-09-14T08:49:42.976Z,14.22
2018-09-14T08:52:48.035Z,14.22
2018-09-14T08:55:51.621Z,14.11
2018-09-14T08:58:55.367Z,14.29
2018-09-14T09:01:59.012Z,14.43
2018-09-14T09:05:02.611Z,14.52
2018-09-14T09:08:06.481Z,14.35
2018-09-14T09:11:10.156Z,14.17
2018-09-14T09:14:13.842Z,14.30
2018-09-14T09:17:17.468Z,14.28
2018-09-14T09:20:21.262Z,14.07
2018-09-14T09:23:24.993Z,14.20
2018-09-14T09:26:29.052Z,14.42
2018-09-14T09:29:32.655Z,14.40
2018-09-14T09:32:36.304Z,14.11
2018-09-14T09:35:40.096Z,14.40
2018-09-14T09:38:43.699Z,14.51
2018-09-14T09:41:47.370Z,14.54
2018-09-14T09:44:51.048Z,14.38
2018-09-14T09:47:54.831Z,14.29
2018-09-14T09:50:58.541Z,14.23
2018-09-14T09:54:02.331Z,14.58
2018-09-14T09:57:06.028Z,14.48
2018-09-14T10:00:14.893Z,14.40
2018-09-14T10:04:24.446Z,14.41
2018-09-14T10:07:28.226Z,14.12
2018-09-14T10:10:31.916Z,14.03
2018-09-14T10:13:35.557Z,14.05
2018-09-14T10:16:39.312Z,14.19
2018-09-14T10:19:43.021Z,14.20
2018-09-14T10:22:46.706Z,14.28
2018-09-14T10:25:50.372Z,14.51
2018-09-14T10:28:54.218Z,14.40
2018-09-14T10:31:57.990Z,14.47
2018-09-14T10:35:01.700Z,14.52
2018-09-14T10:38:05.655Z,14.83
2018-09-14T10:41:09.459Z,14.99
2018-09-14T10:44:13.119Z,15.10
2018-09-14T10:47:16.745Z,15.13
2018-09-14T10:50:20.442Z,15.15
2018-09-14T10:53:24.098Z,15.30
2018-09-14T10:56:27.716Z,15.10
2018-09-14T10:59:31.324Z,15.33
2018-09-14T11:02:35.077Z,15.27
2018-09-14T11:05:38.729Z,15.49
2018-09-14T11:08:42.464Z,15.65
2018-09-14T11:11:46.144Z,15.70
2018-09-14T11:14:49.849Z,15.68
2018-09-14T11:17:53.487Z,15.47
2018-09-14T11:20:57.140Z,15.76
2018-09-14T11:24:00.952Z,15.85
2018-09-14T11:27:04.581Z,15.81
2018-09-14T11:30:08.971Z,15.76
2018-09-14T11:33:12.847Z,15.91
2018-09-14T11:36:16.682Z,16.01
2018-09-14T11:39:20.337Z,16.12
2018-09-14T11:42:24.316Z,16.13
2018-09-14T11:45:28.017Z,16.19
2018-09-14T11:48:31.662Z,16.32
2018-09-14T11:51:35.550Z,16.41
2018-09-14T11:54:39.183Z,16.58
2018-09-14T11:57:42.978Z,16.81
2018-09-14T12:00:47.416Z,16.85
2018-09-14T12:03:51.169Z,17.04
2018-09-14T12:06:54.916Z,16.86
2018-09-14T12:09:58.861Z,16.88
2018-09-14T12:13:02.591Z,16.87
2018-09-14T12:16:06.347Z,16.92
2018-09-14T12:19:10.056Z,17.22
2018-09-14T12:22:13.788Z,17.06
2018-09-14T12:25:17.517Z,17.11
2018-09-14T12:28:21.345Z,17.36
2018-09-14T12:31:25.126Z,17.44
2018-09-14T12:34:28.874Z,17.72
2018-09-14T12:37:32.536Z,17.55
2018-09-14T12:40:36.200Z,17.37
2018-09-14T12:43:39.841Z,17.18
2018-09-14T12:46:43.538Z,17.11
2018-09-14T12:49:47.197Z,17.29
2018-09-14T12:52:50.852Z,17.45
2018-09-14T12:55:54.516Z,17.69
2018-09-14T12:58:58.233Z,17.97
2018-09-14T13:02:01.913Z,18.34
2018-09-14T13:05:05.732Z,18.64
2018-09-14T13:08:09.447Z,18.58
2018-09-14T13:11:13.172Z,18.56
2018-09-14T13:14:20.158Z,18.78
2018-09-14T13:17:23.896Z,19.02
2018-09-14T13:20:27.682Z,18.83
2018-09-14T13:23:31.356Z,18.48
2018-09-14T13:26:35.231Z,18.70
2018-09-14T13:29:38.903Z,18.68
2018-09-14T13:32:46.077Z,18.47
2018-09-14T13:35:49.709Z,18.26
2018-09-14T13:38:53.392Z,18.00
2018-09-14T13:41:57.048Z,17.91
2018-09-14T13:45:00.761Z,18.27
2018-09-14T13:48:04.587Z,18.73
2018-09-14T13:51:08.440Z,19.02
2018-09-14T13:54:12.056Z,19.18
2018-09-14T13:57:15.786Z,18.93
2018-09-14T14:00:19.495Z,19.16
2018-09-14T14:03:23.370Z,19.15
2018-09-14T14:06:26.977Z,18.85
2018-09-14T14:09:30.756Z,18.40
2018-09-14T14:12:34.506Z,18.17
2018-09-14T14:15:38.120Z,18.19
2018-09-14T14:18:41.920Z,18.19
2018-09-14T14:21:45.620Z,18.15
2018-09-14T14:24:49.301Z,18.29
2018-09-14T14:27:53.132Z,18.56
2018-09-14T14:30:56.761Z,18.48
2018-09-14T14:34:00.456Z,18.63
2018-09-14T14:37:05.777Z,18.57
2018-09-14T14:40:09.597Z,18.58
2018-09-14T14:43:13.354Z,18.58
2018-09-14T14:46:17.002Z,18.54
2018-09-14T14:49:20.828Z,18.50
2018-09-14T14:52:24.685Z,18.52
2018-09-14T14:55:28.408Z,18.39
2018-09-14T14:58:32.270Z,18.35
2018-09-14T15:01:36.018Z,18.38
2018-09-14T15:04:39.823Z,18.13
2018-09-14T15:07:44.858Z,18.32
2018-09-14T15:10:48.755Z,18.21
2018-09-14T15:13:52.429Z,18.22
2018-09-14T15:16:56.137Z,18.38
2018-09-14T15:19:59.797Z,18.47
2018-09-14T15:23:03.496Z,18.42
2018-09-14T15:26:07.161Z,18.12
2018-09-14T15:29:10.805Z,18.06
2018-09-14T15:32:14.509Z,18.10
2018-09-14T15:35:18.648Z,18.39
2018-09-14T15:38:22.371Z,18.80
2018-09-14T15:41:26.796Z,18.78
2018-09-14T15:44:30.841Z,18.61
2018-09-14T15:47:39.027Z,18.68
2018-09-14T15:50:44.011Z,18.49
2018-09-14T15:53:49.387Z,18.44
2018-09-14T15:56:54.476Z,18.59
2018-09-14T15:59:58.275Z,18.71
2018-09-14T16:03:03.781Z,18.62
2018-09-14T16:06:07.687Z,18.57
2018-09-14T16:09:11.930Z,18.36
2018-09-14T16:12:15.752Z,18.18
2018-09-14T16:15:23.756Z,18.08
2018-09-14T16:18:27.427Z,17.87
2018-09-14T16:21:31.380Z,17.74
2018-09-14T16:24:35.096Z,17.56
2018-09-14T16:27:38.838Z,17.39
2018-09-14T16:30:42.603Z,17.08
2018-09-14T16:33:46.296Z,16.85
2018-09-14T16:36:50.266Z,16.61
2018-09-14T16:39:53.962Z,16.56
2018-09-14T16:42:57.612Z,16.72
2018-09-14T16:46:01.271Z,16.57
2018-09-14T16:49:05.045Z,16.33
2018-09-14T16:52:09.174Z,16.11
2018-09-14T16:55:13.042Z,15.80
2018-09-14T16:58:16.822Z,15.59
2018-09-14T17:01:21.117Z,15.51
2018-09-14T17:04:25.001Z,15.61
2018-09-14T17:07:28.894Z,15.62
2018-09-14T17:10:32.566Z,15.61
2018-09-14T17:13:36.380Z,15.49
2018-09-14T17:16:40.200Z,15.31
2018-09-14T17:19:44.017Z,15.19
2018-09-14T17:22:47.795Z,15.00
2018-09-14T17:25:51.857Z,14.92
2018-09-14T17:28:55.681Z,14.83
2018-09-14T17:32:02.257Z,14.67
2018-09-14T17:35:06.148Z,14.54
2018-09-14T17:38:10.263Z,14.35
2018-09-14T17:41:14.721Z,14.14
2018-09-14T17:44:18.785Z,13.98
2018-09-14T17:47:22.466Z,13.95
2018-09-14T17:50:26.217Z,13.88
2018-09-14T17:53:30.026Z,13.75
2018-09-14T17:56:33.811Z,13.77
2018-09-14T17:59:37.628Z,13.64
2018-09-14T18:02:42.492Z,13.56
2018-09-14T18:05:47.470Z,13.56
2018-09-14T18:08:52.529Z,13.60
2018-09-14T18:11:56.329Z,13.52
2018-09-14T18:14:59.976Z,13.43
2018-09-14T18:18:03.790Z,13.40
2018-09-14T18:21:07.524Z,13.30
2018-09-14T18:24:11.210Z,13.22
2018-09-14T18:27:14.839Z,13.33
2018-09-14T18:30:18.532Z,13.24
2018-09-14T18:33:22.253Z,13.25
2018-09-14T18:36:26.521Z,13.24
2018-09-14T18:39:30.211Z,13.18
2018-09-14T18:42:34.022Z,13.20
2018-09-14T18:45:37.780Z,13.18
2018-09-14T18:48:43.871Z,13.04
2018-09-14T18:51:47.817Z,12.95
2018-09-14T18:54:51.761Z,12.93
2018-09-14T18:57:56.346Z,13.01
2018-09-14T19:01:02.571Z,13.02
2018-09-14T19:04:08.298Z,13.01
2018-09-14T19:07:12.088Z,12.97
2018-09-14T19:10:15.827Z,12.99
2018-09-14T19:13:19.625Z,13.04
2018-09-14T19:16:23.412Z,13.10
2018-09-14T19:19:27.145Z,13.24
2018-09-14T19:22:30.910Z,13.38
2018-09-14T19:25:34.765Z,13.50
2018-09-14T19:28:38.582Z,13.52
2018-09-14T19:31:42.382Z,13.52
2018-09-14T19:34:46.116Z,13.64
2018-09-14T19:37:50.046Z,13.76
2018-09-14T19:40:53.709Z,13.90
2018-09-14T19:43:57.653Z,13.82
2018-09-14T19:47:01.421Z,13.75
2018-09-14T19:50:05.382Z,13.98
2018-09-14T19:53:09.208Z,14.09
2018-09-14T19:56:13.033Z,14.38
2018-09-14T19:59:16.847Z,14.26
2018-09-14T20:02:20.648Z,14.19
2018-09-14T20:05:24.440Z,14.10
2018-09-14T20:08:28.158Z,14.17
2018-09-14T20:11:31.961Z,14.43
2018-09-14T20:14:35.647Z,14.57
2018-09-14T20:17:39.521Z,14.48
2018-09-14T20:20:43.226Z,14.42
2018-09-14T20:23:47.067Z,14.50
2018-09-14T20:26:50.675Z,14.51
2018-09-14T20:29:54.350Z,14.51
2018-09-14T20:32:58.195Z,14.49
2018-09-14T20:36:01.980Z,14.35
2018-09-14T20:39:08.591Z,14.28
2018-09-14T20:42:12.356Z,14.40
2018-09-14T20:45:16.417Z,14.40
2018-09-14T20:48:20.629Z,14.30
2018-09-14T20:51:24.800Z,14.37
2018-09-14T20:54:28.487Z,14.40
2018-09-14T20:57:32.311Z,14.48
2018-09-14T21:00:36.021Z,14.55
2018-09-14T21:03:39.732Z,14.47
2018-09-14T21:06:44.346Z,14.33
2018-09-14T21:09:48.181Z,14.38
2018-09-14T21:12:52.012Z,14.57
2018-09-14T21:15:55.697Z,14.47
2018-09-14T21:18:59.514Z,14.51
2018-09-14T21:22:03.360Z,14.38
2018-09-14T21:25:07.407Z,14.37
2018-09-14T21:28:11.160Z,14.34
2018-09-14T21:31:14.901Z,14.49
2018-09-14T21:34:18.593Z,14.37
2018-09-14T21:37:22.377Z,14.42
2018-09-14T21:40:26.168Z,14.37
2018-09-14T21:43:29.816Z,14.42
2018-09-14T21:46:33.565Z,14.43
2018-09-14T21:49:37.389Z,14.41
2018-09-14T21:52:41.165Z,14.39
2018-09-14T21:55:44.890Z,14.29
2018-09-14T21:58:48.620Z,14.28
2018-09-14T22:01:52.517Z,13.94
2018-09-14T22:04:56.484Z,14.06
2018-09-14T22:08:00.193Z,14.08
2018-09-14T22:11:03.876Z,14.25
2018-09-14T22:14:07.570Z,14.26
2018-09-14T22:17:11.175Z,14.27
2018-09-14T22:20:15.069Z,14.07
2018-09-14T22:23:18.827Z,14.06
2018-09-14T22:26:22.547Z,14.10
2018-09-14T22:29:26.289Z,14.04
2018-09-14T22:32:29.972Z,14.00
2018-09-14T22:35:33.729Z,14.08
2018-09-14T22:38:37.417Z,14.08
2018-09-14T22:41:41.116Z,14.08
2018-09-14T22:44:44.709Z,14.09
2018-09-14T22:47:48.446Z,14.07
2018-09-14T22:50:52.136Z,14.19
2018-09-14T22:53:55.782Z,14.08
2018-09-14T22:56:59.506Z,13.99
2018-09-14T23:00:03.217Z,13.93
2018-09-14T23:03:06.933Z,13.82
2018-09-14T23:06:10.872Z,13.85
2018-09-14T23:09:14.480Z,13.93
2018-09-14T23:12:18.191Z,13.83
2018-09-14T23:15:22.176Z,13.83
2018-09-14T23:18:25.841Z,13.73
2018-09-14T23:21:29.627Z,13.60
2018-09-14T23:24:33.287Z,13.46
2018-09-14T23:27:36.977Z,13.16
2018-09-14T23:30:40.730Z,13.00
2018-09-14T23:33:44.620Z,13.05
2018-09-14T23:36:48.286Z,12.88
2018-09-14T23:39:52.104Z,12.76
2018-09-14T23:42:56.022Z,12.72
2018-09-14T23:45:59.648Z,12.66
2018-09-14T23:49:03.279Z,12.64
2018-09-14T23:52:07.185Z,13.00
2018-09-14T23:55:10.826Z,13.26
2018-09-14T23:58:14.805Z,13.32
